Time;durP1;ratioP1;P1;durP2;ratioP2;P2;SDS_P1;SDS_P2;PMS_P1;PMS_P2;Temp;Humidity;BMP_temperature;BMP_pressure;BME280_temperature;BME280_humidity;BME280_pressure;Samples;Min_cycle;Max_cycle;Signal;HPM_P1;HPM_P2
2023/12/01 00:00:15;;;;;;;31.73;15.73;;;;;;;;;;6180937;23;20462;-85
2023/12/01 00:02:43;;;;;;;30.20;16.92;;;;;;;;;;6155287;23;20066;-85
2023/12/01 00:05:10;;;;;;;30.25;16.45;;;;;;;;;;6180966;23;20025;-85
2023/12/01 00:07:37;;;;;;;33.95;16.42;;;;;;;;;;6181247;23;20021;-86
2023/12/01 00:10:09;;;;;;;30.85;16.83;;;;;;;;;;6154385;23;20021;-85
2023/12/01 00:12:37;;;;;;;31.15;16.55;;;;;;;;;;6181086;23;20059;-85
2023/12/01 00:15:05;;;;;;;29.58;15.60;;;;;;;;;;6154780;23;20103;-86
2023/12/01 00:17:32;;;;;;;31.48;16.70;;;;;;;;;;6155273;23;20025;-85
2023/12/01 00:20:00;;;;;;;30.77;16.95;;;;;;;;;;6155123;23;20338;-85
2023/12/01 00:22:27;;;;;;;32.42;17.25;;;;;;;;;;6154839;23;20032;-86
2023/12/01 00:24:55;;;;;;;36.72;18.02;;;;;;;;;;6180291;23;20102;-85
2023/12/01 00:27:22;;;;;;;40.75;17.73;;;;;;;;;;6155252;23;20032;-85
2023/12/01 00:29:49;;;;;;;42.10;20.65;;;;;;;;;;6180355;23;20021;-85
2023/12/01 00:32:16;;;;;;;33.25;16.63;;;;;;;;;;6154989;23;20021;-86
2023/12/01 00:34:44;;;;;;;32.92;17.20;;;;;;;;;;6180535;23;20060;-85
2023/12/01 00:37:16;;;;;;;33.95;17.27;;;;;;;;;;6154940;23;20056;-85
2023/12/01 00:39:43;;;;;;;31.02;17.38;;;;;;;;;;6154808;23;20037;-85
2023/12/01 00:42:13;;;;;;;30.52;16.85;;;;;;;;;;6155017;23;20023;-85
2023/12/01 00:44:40;;;;;;;30.95;15.75;;;;;;;;;;6154793;23;20029;-85
2023/12/01 00:47:08;;;;;;;32.83;16.48;;;;;;;;;;6155082;23;20021;-85
2023/12/01 00:49:35;;;;;;;26.85;15.35;;;;;;;;;;6154629;23;20025;-85
2023/12/01 00:52:04;;;;;;;30.33;16.02;;;;;;;;;;6154065;23;20033;-85
2023/12/01 00:54:32;;;;;;;29.42;16.48;;;;;;;;;;6154658;23;20025;-85
2023/12/01 00:57:00;;;;;;;28.30;15.00;;;;;;;;;;6155131;23;20017;-86
2023/12/01 00:59:28;;;;;;;25.85;14.52;;;;;;;;;;6155265;23;20043;-85
2023/12/01 01:01:55;;;;;;;23.45;13.98;;;;;;;;;;6180650;23;20029;-86
2023/12/01 01:04:23;;;;;;;26.90;14.38;;;;;;;;;;6180236;23;20057;-85
2023/12/01 01:06:50;;;;;;;25.48;13.88;;;;;;;;;;6180661;23;20085;-85
2023/12/01 01:09:17;;;;;;;25.90;14.02;;;;;;;;;;6155071;23;20334;-85
2023/12/01 01:11:45;;;;;;;28.45;15.20;;;;;;;;;;6181443;23;20025;-86
2023/12/01 01:14:12;;;;;;;24.75;14.40;;;;;;;;;;6155120;23;20025;-85
2023/12/01 01:16:40;;;;;;;31.33;16.92;;;;;;;;;;6180486;23;20025;-85
2023/12/01 01:19:07;;;;;;;31.98;15.73;;;;;;;;;;6154353;23;20025;-85
2023/12/01 01:21:34;;;;;;;29.00;15.73;;;;;;;;;;6154692;23;20063;-85
2023/12/01 01:24:02;;;;;;;32.40;17.35;;;;;;;;;;6180456;23;20032;-86
2023/12/01 01:26:29;;;;;;;36.13;18.30;;;;;;;;;;6154561;23;20021;-85
2023/12/01 01:28:57;;;;;;;32.38;17.77;;;;;;;;;;6154667;23;20392;-85
2023/12/01 01:31:24;;;;;;;29.75;17.17;;;;;;;;;;6154261;23;20055;-85
2023/12/01 01:33:51;;;;;;;28.73;16.67;;;;;;;;;;6154460;23;20458;-85
2023/12/01 01:36:19;;;;;;;25.50;15.57;;;;;;;;;;6154533;23;20382;-85
2023/12/01 01:38:46;;;;;;;28.23;15.73;;;;;;;;;;6154874;23;20025;-85
2023/12/01 01:41:13;;;;;;;26.65;15.05;;;;;;;;;;6154822;23;20090;-85
2023/12/01 01:43:40;;;;;;;22.33;14.02;;;;;;;;;;6154328;23;20013;-85
2023/12/01 01:46:10;;;;;;;25.08;15.00;;;;;;;;;;6155076;23;20033;-85
2023/12/01 01:48:38;;;;;;;23.85;13.48;;;;;;;;;;6182067;23;20025;-85
2023/12/01 01:51:12;;;;;;;24.13;14.10;;;;;;;;;;6181432;23;20327;-85
2023/12/01 01:53:43;;;;;;;27.88;14.35;;;;;;;;;;6181273;23;20533;-85
2023/12/01 01:56:12;;;;;;;23.38;14.77;;;;;;;;;;6155621;23;20021;-85
2023/12/01 01:58:40;;;;;;;24.85;13.95;;;;;;;;;;6155501;23;20334;-86
2023/12/01 02:01:07;;;;;;;25.00;14.68;;;;;;;;;;6155581;23;20398;-85
2023/12/01 02:03:36;;;;;;;20.35;12.65;;;;;;;;;;6155868;23;20071;-85
2023/12/01 02:06:07;;;;;;;23.30;12.90;;;;;;;;;;6181510;23;20104;-85
2023/12/01 02:08:35;;;;;;;19.70;12.25;;;;;;;;;;6155457;22;20346;-84
2023/12/01 02:11:03;;;;;;;23.83;13.85;;;;;;;;;;6155325;23;20029;-84
2023/12/01 02:13:30;;;;;;;22.08;13.60;;;;;;;;;;6155751;23;20029;-85
2023/12/01 02:15:59;;;;;;;19.88;12.68;;;;;;;;;;6155608;23;20021;-85
2023/12/01 02:18:29;;;;;;;23.50;13.77;;;;;;;;;;6155990;23;20057;-85
2023/12/01 02:20:57;;;;;;;21.70;12.52;;;;;;;;;;6181813;23;20350;-85
2023/12/01 02:23:25;;;;;;;20.30;12.82;;;;;;;;;;6154858;23;20071;-86
2023/12/01 02:25:52;;;;;;;22.70;13.05;;;;;;;;;;6155203;23;20021;-84
2023/12/01 02:28:19;;;;;;;21.48;13.40;;;;;;;;;;6181431;23;20025;-85
2023/12/01 02:30:51;;;;;;;19.55;12.85;;;;;;;;;;6155442;23;20025;-84
2023/12/01 02:33:19;;;;;;;22.55;13.50;;;;;;;;;;6181649;23;20033;-84
2023/12/01 02:35:50;;;;;;;20.95;12.95;;;;;;;;;;6181204;23;20017;-84
2023/12/01 02:38:18;;;;;;;21.27;13.20;;;;;;;;;;6155454;23;20048;-84
2023/12/01 02:40:51;;;;;;;21.30;12.90;;;;;;;;;;6155580;23;20017;-84
2023/12/01 02:43:19;;;;;;;21.15;13.05;;;;;;;;;;6155732;23;20036;-85
2023/12/01 02:45:47;;;;;;;19.85;12.73;;;;;;;;;;6155038;23;20454;-84
2023/12/01 02:48:16;;;;;;;19.80;13.15;;;;;;;;;;6155295;23;20029;-84
2023/12/01 02:50:45;;;;;;;19.98;12.20;;;;;;;;;;6155048;23;20021;-83
2023/12/01 02:53:13;;;;;;;18.48;11.75;;;;;;;;;;6154839;23;20468;-84
2023/12/01 02:55:40;;;;;;;20.05;12.70;;;;;;;;;;6180819;23;20013;-84
2023/12/01 02:58:07;;;;;;;21.75;12.50;;;;;;;;;;6155344;23;20025;-84
2023/12/01 03:00:35;;;;;;;21.45;13.15;;;;;;;;;;6155531;23;20030;-84
2023/12/01 03:03:02;;;;;;;20.05;12.52;;;;;;;;;;6155202;23;20472;-84
2023/12/01 03:05:29;;;;;;;19.85;13.00;;;;;;;;;;6154782;23;20028;-85
2023/12/01 03:07:57;;;;;;;26.17;15.20;;;;;;;;;;6155314;23;20082;-84
2023/12/01 03:10:24;;;;;;;23.70;14.32;;;;;;;;;;6155008;23;20457;-84
2023/12/01 03:12:51;;;;;;;21.52;12.73;;;;;;;;;;6155346;23;20074;-85
2023/12/01 03:15:22;;;;;;;21.92;12.82;;;;;;;;;;6155132;23;20025;-84
2023/12/01 03:17:49;;;;;;;19.23;12.48;;;;;;;;;;6154808;23;20018;-84
2023/12/01 03:20:17;;;;;;;18.60;11.63;;;;;;;;;;6181055;23;20070;-84
2023/12/01 03:22:45;;;;;;;17.33;11.10;;;;;;;;;;6181466;23;20350;-84
2023/12/01 03:25:12;;;;;;;18.95;11.77;;;;;;;;;;6155148;23;20089;-84
2023/12/01 03:27:42;;;;;;;21.15;11.45;;;;;;;;;;6180989;23;20464;-85
2023/12/01 03:30:13;;;;;;;17.92;11.57;;;;;;;;;;6180865;23;20029;-84
2023/12/01 03:32:44;;;;;;;31.40;14.57;;;;;;;;;;6180450;23;20450;-84
2023/12/01 03:35:12;;;;;;;24.00;13.35;;;;;;;;;;6155072;23;20040;-84
2023/12/01 03:37:40;;;;;;;24.35;13.77;;;;;;;;;;6155205;23;20087;-84
2023/12/01 03:40:08;;;;;;;22.98;13.10;;;;;;;;;;6155240;23;20029;-84
2023/12/01 03:42:38;;;;;;;22.73;13.75;;;;;;;;;;6155192;23;20018;-84
2023/12/01 03:45:10;;;;;;;22.95;12.45;;;;;;;;;;6180775;23;20025;-84
2023/12/01 03:47:38;;;;;;;24.38;14.07;;;;;;;;;;6155550;23;20369;-84
2023/12/01 03:50:05;;;;;;;23.52;13.43;;;;;;;;;;6154780;23;20031;-84
2023/12/01 03:52:33;;;;;;;23.52;14.20;;;;;;;;;;6180890;23;20026;-84
2023/12/01 03:55:01;;;;;;;25.33;14.52;;;;;;;;;;6180628;23;20396;-84
2023/12/01 03:57:29;;;;;;;21.25;13.07;;;;;;;;;;6154719;23;20025;-84
2023/12/01 03:59:56;;;;;;;29.38;14.60;;;;;;;;;;6154564;23;20459;-84
2023/12/01 04:02:23;;;;;;;26.90;14.68;;;;;;;;;;6154770;23;20338;-84
2023/12/01 04:04:51;;;;;;;25.40;13.80;;;;;;;;;;6180213;23;20028;-84
2023/12/01 04:07:18;;;;;;;25.65;14.20;;;;;;;;;;6154055;23;20071;-84
2023/12/01 04:09:45;;;;;;;21.55;12.88;;;;;;;;;;6154291;23;20021;-84
2023/12/01 04:12:13;;;;;;;24.45;13.90;;;;;;;;;;6154990;23;20029;-84
2023/12/01 04:14:40;;;;;;;25.52;13.85;;;;;;;;;;6154809;23;20078;-84
2023/12/01 04:17:13;;;;;;;25.52;13.43;;;;;;;;;;6154428;23;20086;-84
2023/12/01 04:19:40;;;;;;;25.55;13.05;;;;;;;;;;6154660;23;20070;-84
2023/12/01 04:22:08;;;;;;;25.40;13.93;;;;;;;;;;6154810;23;20346;-84
2023/12/01 04:24:35;;;;;;;27.10;14.10;;;;;;;;;;6154144;23;20473;-84
2023/12/01 04:27:04;;;;;;;22.48;13.75;;;;;;;;;;6154881;23;20021;-85
2023/12/01 04:29:31;;;;;;;25.35;14.27;;;;;;;;;;6154833;23;20022;-84
2023/12/01 04:31:59;;;;;;;28.30;15.43;;;;;;;;;;6155066;23;20307;-84
2023/12/01 04:34:28;;;;;;;29.55;16.08;;;;;;;;;;6154865;23;20033;-84
2023/12/01 04:36:55;;;;;;;27.98;14.63;;;;;;;;;;6180160;23;20054;-84
2023/12/01 04:39:23;;;;;;;23.00;13.45;;;;;;;;;;6154924;23;20028;-84
2023/12/01 04:41:51;;;;;;;24.92;14.18;;;;;;;;;;6180894;23;20078;-84
2023/12/01 04:44:18;;;;;;;28.02;14.73;;;;;;;;;;6180224;23;20287;-84
2023/12/01 04:46:45;;;;;;;24.13;14.23;;;;;;;;;;6180385;23;20024;-84
2023/12/01 04:49:13;;;;;;;26.48;14.10;;;;;;;;;;6154614;23;20025;-84
2023/12/01 04:51:40;;;;;;;24.20;14.10;;;;;;;;;;6180213;23;20028;-84
2023/12/01 04:54:07;;;;;;;25.20;14.13;;;;;;;;;;6154532;23;20023;-85
2023/12/01 04:56:35;;;;;;;26.30;14.35;;;;;;;;;;6153731;23;20017;-84
2023/12/01 04:59:02;;;;;;;25.65;14.40;;;;;;;;;;6154786;23;20047;-84
2023/12/01 05:01:29;;;;;;;26.00;14.43;;;;;;;;;;6180671;23;20033;-84
2023/12/01 05:03:56;;;;;;;22.27;13.05;;;;;;;;;;6154517;23;20025;-84
2023/12/01 05:06:25;;;;;;;21.95;13.40;;;;;;;;;;6180188;23;20024;-84
2023/12/01 05:08:53;;;;;;;23.83;13.90;;;;;;;;;;6154228;23;20025;-84
2023/12/01 05:11:20;;;;;;;27.35;14.20;;;;;;;;;;6154612;23;20082;-84
2023/12/01 05:13:47;;;;;;;24.33;13.07;;;;;;;;;;6154296;23;20021;-84
2023/12/01 05:16:16;;;;;;;25.00;14.52;;;;;;;;;;6180297;23;20036;-83
2023/12/01 05:18:44;;;;;;;27.52;14.75;;;;;;;;;;6154070;23;20028;-84
2023/12/01 05:21:11;;;;;;;23.05;14.27;;;;;;;;;;6154332;23;20025;-83
2023/12/01 05:23:38;;;;;;;26.52;14.38;;;;;;;;;;6154476;23;20075;-84
2023/12/01 05:26:06;;;;;;;23.15;14.07;;;;;;;;;;6180292;23;20025;-84
2023/12/01 05:28:33;;;;;;;24.27;13.68;;;;;;;;;;6180500;23;20029;-83
2023/12/01 05:31:01;;;;;;;26.73;14.48;;;;;;;;;;6153959;23;20060;-84
2023/12/01 05:33:29;;;;;;;27.48;14.15;;;;;;;;;;6154376;23;20024;-84
2023/12/01 05:35:57;;;;;;;29.20;14.95;;;;;;;;;;6154071;23;20082;-84
2023/12/01 05:38:24;;;;;;;28.20;15.00;;;;;;;;;;6154715;23;20025;-84
2023/12/01 05:40:51;;;;;;;25.98;14.18;;;;;;;;;;6153754;23;20025;-84
2023/12/01 05:43:19;;;;;;;23.90;14.27;;;;;;;;;;6180276;23;20025;-84
2023/12/01 05:45:46;;;;;;;26.08;14.80;;;;;;;;;;6153620;23;20075;-84
2023/12/01 05:48:13;;;;;;;31.38;15.70;;;;;;;;;;6180315;23;20025;-84
2023/12/01 05:50:42;;;;;;;25.30;14.43;;;;;;;;;;6154242;23;20130;-84
2023/12/01 05:53:11;;;;;;;26.27;14.48;;;;;;;;;;6153856;23;20092;-84
2023/12/01 05:55:38;;;;;;;25.77;14.82;;;;;;;;;;6153919;23;20312;-84
2023/12/01 05:58:10;;;;;;;24.70;14.38;;;;;;;;;;6153891;23;20067;-83
2023/12/01 06:00:39;;;;;;;23.67;13.77;;;;;;;;;;6153855;23;20477;-84
2023/12/01 06:03:07;;;;;;;26.15;15.02;;;;;;;;;;6153890;23;20021;-84
2023/12/01 06:05:35;;;;;;;28.27;15.23;;;;;;;;;;6153840;23;20025;-83
2023/12/01 06:08:03;;;;;;;27.40;14.60;;;;;;;;;;6180060;23;20070;-84
2023/12/01 06:10:32;;;;;;;28.73;15.50;;;;;;;;;;6179836;23;20327;-84
2023/12/01 06:13:00;;;;;;;28.30;15.10;;;;;;;;;;6154028;23;20032;-84
2023/12/01 06:15:31;;;;;;;30.50;14.63;;;;;;;;;;6180135;23;20047;-84
2023/12/01 06:17:59;;;;;;;25.20;14.48;;;;;;;;;;6154261;23;20021;-84
2023/12/01 06:20:29;;;;;;;34.88;16.92;;;;;;;;;;6154070;23;20018;-84
2023/12/01 06:22:57;;;;;;;45.30;20.75;;;;;;;;;;6154074;23;20078;-84
2023/12/01 06:25:27;;;;;;;48.08;24.15;;;;;;;;;;6179009;23;20090;-84
2023/12/01 06:27:58;;;;;;;49.42;24.52;;;;;;;;;;6153546;23;20074;-84
2023/12/01 06:30:26;;;;;;;35.03;18.35;;;;;;;;;;6180986;23;20093;-84
2023/12/01 06:32:53;;;;;;;28.25;15.60;;;;;;;;;;6181598;23;20094;-84
2023/12/01 06:35:21;;;;;;;27.83;15.48;;;;;;;;;;6154932;23;20405;-83
2023/12/01 06:37:49;;;;;;;28.63;16.10;;;;;;;;;;6180747;23;20066;-84
2023/12/01 06:40:17;;;;;;;26.17;14.77;;;;;;;;;;6180935;23;20025;-83
2023/12/01 06:42:46;;;;;;;27.55;15.55;;;;;;;;;;6181127;23;20021;-84
2023/12/01 06:45:15;;;;;;;28.88;15.65;;;;;;;;;;6154532;23;20079;-84
2023/12/01 06:47:43;;;;;;;25.83;14.10;;;;;;;;;;6154933;23;20096;-84
2023/12/01 06:50:10;;;;;;;31.02;16.65;;;;;;;;;;6180839;23;20059;-83
2023/12/01 06:52:42;;;;;;;27.55;15.60;;;;;;;;;;6180703;23;20025;-83
2023/12/01 06:55:10;;;;;;;33.90;15.87;;;;;;;;;;6180872;23;20025;-83
2023/12/01 06:57:38;;;;;;;29.00;15.50;;;;;;;;;;6155385;23;20079;-83
2023/12/01 07:00:10;;;;;;;28.00;15.50;;;;;;;;;;6181235;23;20039;-83
2023/12/01 07:02:38;;;;;;;33.60;16.63;;;;;;;;;;6180665;23;20025;-83
2023/12/01 07:05:07;;;;;;;26.40;16.13;;;;;;;;;;6180341;23;20358;-84
2023/12/01 07:07:37;;;;;;;32.53;16.88;;;;;;;;;;6155201;23;20086;-84
2023/12/01 07:10:05;;;;;;;30.40;16.35;;;;;;;;;;6181333;23;20312;-84
2023/12/01 07:12:34;;;;;;;31.30;18.65;;;;;;;;;;6181088;23;20031;-84
2023/12/01 07:15:02;;;;;;;32.95;16.45;;;;;;;;;;6180704;23;20086;-83
2023/12/01 07:17:29;;;;;;;34.80;17.48;;;;;;;;;;6154819;23;20453;-83
2023/12/01 07:19:56;;;;;;;30.85;16.67;;;;;;;;;;6154874;23;20409;-84
2023/12/01 07:22:24;;;;;;;34.33;17.25;;;;;;;;;;6154779;23;20052;-84
2023/12/01 07:24:54;;;;;;;30.05;17.42;;;;;;;;;;6154776;23;20025;-84
2023/12/01 07:27:25;;;;;;;38.38;17.85;;;;;;;;;;6155125;23;20032;-84
2023/12/01 07:29:52;;;;;;;37.40;18.63;;;;;;;;;;6154794;23;20100;-84
2023/12/01 07:32:19;;;;;;;35.58;19.05;;;;;;;;;;6181090;23;20064;-84
2023/12/01 07:34:47;;;;;;;36.92;19.05;;;;;;;;;;6180348;23;20021;-84
2023/12/01 07:37:14;;;;;;;36.50;18.77;;;;;;;;;;6181188;23;20024;-84
2023/12/01 07:39:41;;;;;;;38.65;18.80;;;;;;;;;;6181061;23;20096;-84
2023/12/01 07:42:09;;;;;;;37.08;19.45;;;;;;;;;;6180162;23;20335;-84
2023/12/01 07:44:36;;;;;;;36.13;19.45;;;;;;;;;;6180453;23;20066;-83
2023/12/01 07:47:08;;;;;;;38.00;19.38;;;;;;;;;;6154480;23;20028;-84
2023/12/01 07:49:35;;;;;;;39.00;20.40;;;;;;;;;;6181151;23;20017;-84
2023/12/01 07:52:06;;;;;;;43.13;22.50;;;;;;;;;;6180234;23;20022;-84
2023/12/01 07:54:35;;;;;;;46.08;21.30;;;;;;;;;;6154642;23;20052;-83
2023/12/01 07:57:03;;;;;;;47.92;23.27;;;;;;;;;;6154849;23;20021;-83
2023/12/01 07:59:31;;;;;;;47.67;22.13;;;;;;;;;;6154841;23;20477;-84
2023/12/01 08:01:58;;;;;;;48.88;21.15;;;;;;;;;;6154813;23;20025;-84
2023/12/01 08:04:28;;;;;;;53.33;21.75;;;;;;;;;;6155179;23;20018;-83
2023/12/01 08:06:58;;;;;;;47.70;20.48;;;;;;;;;;6154814;23;20105;-83
2023/12/01 08:09:25;;;;;;;49.13;21.65;;;;;;;;;;6154728;23;20092;-83
2023/12/01 08:11:53;;;;;;;49.55;20.13;;;;;;;;;;6154233;23;20056;-83
2023/12/01 08:14:20;;;;;;;53.75;24.35;;;;;;;;;;6154481;23;20449;-83
2023/12/01 08:16:47;;;;;;;51.22;23.17;;;;;;;;;;6154819;23;20096;-84
2023/12/01 08:19:16;;;;;;;50.70;21.90;;;;;;;;;;6154634;23;20043;-84
2023/12/01 08:21:44;;;;;;;53.60;20.33;;;;;;;;;;6154608;23;20082;-84
2023/12/01 08:24:11;;;;;;;53.42;23.02;;;;;;;;;;6154447;23;20036;-84
2023/12/01 08:26:39;;;;;;;49.88;20.00;;;;;;;;;;6154437;23;20028;-84
2023/12/01 08:29:08;;;;;;;56.90;21.73;;;;;;;;;;6155539;23;20028;-84
2023/12/01 08:31:38;;;;;;;51.30;21.38;;;;;;;;;;6154674;23;20021;-83
2023/12/01 08:34:09;;;;;;;53.17;20.98;;;;;;;;;;6180979;23;20053;-84
2023/12/01 08:36:49;;;;;;;43.33;18.48;;;;;;;;;;6157404;23;20117;-83
2023/12/01 08:39:16;;;;;;;39.45;18.08;;;;;;;;;;6155022;23;20017;-83
2023/12/01 08:41:44;;;;;;;45.97;19.52;;;;;;;;;;6154755;23;20079;-83
2023/12/01 08:44:11;;;;;;;44.28;20.02;;;;;;;;;;6180837;23;20025;-84
2023/12/01 08:46:38;;;;;;;59.53;22.02;;;;;;;;;;6153696;23;20100;-83
2023/12/01 08:49:05;;;;;;;48.88;20.42;;;;;;;;;;6180275;23;20070;-83
2023/12/01 08:51:33;;;;;;;43.65;17.85;;;;;;;;;;6179889;23;20523;-83
2023/12/01 08:54:00;;;;;;;44.13;18.88;;;;;;;;;;6154459;23;20017;-83
2023/12/01 08:56:32;;;;;;;40.05;18.38;;;;;;;;;;6154517;23;20021;-83
2023/12/01 08:58:59;;;;;;;41.05;18.25;;;;;;;;;;6154475;23;20017;-83
2023/12/01 09:01:27;;;;;;;39.60;18.08;;;;;;;;;;6154471;23;20071;-82
2023/12/01 09:03:54;;;;;;;36.83;17.00;;;;;;;;;;6154220;23;20032;-83
2023/12/01 09:06:22;;;;;;;36.97;16.65;;;;;;;;;;6154344;23;20047;-83
2023/12/01 09:08:50;;;;;;;40.90;16.75;;;;;;;;;;6154695;23;20017;-83
2023/12/01 09:11:17;;;;;;;40.67;17.75;;;;;;;;;;6154080;23;20342;-83
2023/12/01 09:13:44;;;;;;;63.78;30.38;;;;;;;;;;6180567;23;20029;-83
2023/12/01 09:16:12;;;;;;;58.28;23.25;;;;;;;;;;6154107;23;20141;-83
2023/12/01 09:18:39;;;;;;;63.28;31.02;;;;;;;;;;6154525;23;20365;-83
2023/12/01 09:21:07;;;;;;;42.03;19.88;;;;;;;;;;6154302;23;20079;-83
2023/12/01 09:23:40;;;;;;;48.00;22.33;;;;;;;;;;6154634;23;20058;-83
2023/12/01 09:26:07;;;;;;;67.72;37.97;;;;;;;;;;6180205;23;20401;-83
2023/12/01 09:28:35;;;;;;;79.35;41.33;;;;;;;;;;6180143;23;20025;-83
2023/12/01 09:31:02;;;;;;;45.10;21.30;;;;;;;;;;6153746;23;20039;-83
2023/12/01 09:33:30;;;;;;;42.80;19.65;;;;;;;;;;6154513;23;20021;-83
2023/12/01 09:35:57;;;;;;;37.17;19.30;;;;;;;;;;6180096;23;20018;-83
2023/12/01 09:38:26;;;;;;;44.00;20.25;;;;;;;;;;6154777;23;20021;-84
2023/12/01 09:40:54;;;;;;;55.60;28.60;;;;;;;;;;6180068;23;20379;-84
2023/12/01 09:43:21;;;;;;;36.83;18.45;;;;;;;;;;6153770;23;20017;-84
2023/12/01 09:45:52;;;;;;;39.25;20.30;;;;;;;;;;6153842;23;20048;-83
2023/12/01 09:48:19;;;;;;;38.15;20.90;;;;;;;;;;6154443;23;20024;-84
2023/12/01 09:50:47;;;;;;;40.88;19.35;;;;;;;;;;6154246;23;20438;-83
2023/12/01 09:53:16;;;;;;;42.50;22.23;;;;;;;;;;6179200;23;20044;-84
2023/12/01 09:55:43;;;;;;;43.85;18.90;;;;;;;;;;6153695;23;20021;-83
2023/12/01 09:58:11;;;;;;;38.13;19.75;;;;;;;;;;6180144;23;20052;-84
2023/12/01 10:00:38;;;;;;;53.15;26.95;;;;;;;;;;6180113;23;20021;-84
2023/12/01 10:03:06;;;;;;;38.60;20.15;;;;;;;;;;6179801;23;20025;-84
2023/12/01 10:05:35;;;;;;;155.48;99.88;;;;;;;;;;6154516;23;20349;-84
2023/12/01 10:08:04;;;;;;;79.32;49.47;;;;;;;;;;6155049;23;20028;-84
2023/12/01 10:10:33;;;;;;;56.85;30.65;;;;;;;;;;6155285;23;20028;-84
2023/12/01 10:13:04;;;;;;;62.97;29.58;;;;;;;;;;6181514;23;20021;-84
2023/12/01 10:15:33;;;;;;;52.33;29.58;;;;;;;;;;6154826;23;20017;-83
2023/12/01 10:18:19;;;;;;;42.30;22.27;;;;;;;;;;6180967;23;20024;-83
2023/12/01 10:20:58;;;;;;;50.10;23.52;;;;;;;;;;6181026;23;20346;-83
2023/12/01 10:23:27;;;;;;;48.40;21.92;;;;;;;;;;6155686;23;20021;-84
2023/12/01 10:25:56;;;;;;;62.15;24.98;;;;;;;;;;6154990;23;20056;-83
2023/12/01 10:28:26;;;;;;;108.43;35.08;;;;;;;;;;6181048;23;20025;-84
2023/12/01 10:30:55;;;;;;;55.25;23.85;;;;;;;;;;6181287;23;20017;-84
2023/12/01 10:33:22;;;;;;;49.58;22.05;;;;;;;;;;6181145;23;20037;-83
2023/12/01 10:36:03;;;;;;;70.25;26.20;;;;;;;;;;6180699;23;20466;-83
2023/12/01 10:38:33;;;;;;;37.08;18.27;;;;;;;;;;6155075;23;20547;-84
2023/12/01 10:41:01;;;;;;;39.30;19.33;;;;;;;;;;6155491;23;20025;-84
2023/12/01 10:43:28;;;;;;;31.83;17.13;;;;;;;;;;6155178;23;20027;-83
2023/12/01 10:45:57;;;;;;;34.95;19.42;;;;;;;;;;6154748;23;20090;-84
2023/12/01 10:48:27;;;;;;;34.90;18.85;;;;;;;;;;6154936;23;20031;-84
2023/12/01 10:50:55;;;;;;;37.55;19.48;;;;;;;;;;6155251;23;20031;-84
2023/12/01 10:53:24;;;;;;;34.33;18.63;;;;;;;;;;6180804;23;20102;-84
2023/12/01 10:55:54;;;;;;;37.00;19.00;;;;;;;;;;6180327;23;20382;-84
2023/12/01 10:58:22;;;;;;;41.13;21.25;;;;;;;;;;6154969;23;20042;-84
2023/12/01 11:00:50;;;;;;;37.47;20.63;;;;;;;;;;6155089;23;20425;-84
2023/12/01 11:03:19;;;;;;;45.65;22.33;;;;;;;;;;6181377;23;20021;-84
2023/12/01 11:05:51;;;;;;;44.75;22.15;;;;;;;;;;6181104;23;20025;-84
2023/12/01 11:08:20;;;;;;;;;;;;;;;;;;6181219;23;20092;-83
2023/12/01 11:10:57;;;;;;;36.90;19.02;;;;;;;;;;6154958;23;19920;-84
2023/12/01 11:13:24;;;;;;;34.28;18.45;;;;;;;;;;6155432;23;20074;-84
2023/12/01 11:15:53;;;;;;;33.13;17.67;;;;;;;;;;6180981;23;20076;-83
2023/12/01 11:18:21;;;;;;;31.83;17.70;;;;;;;;;;6181208;23;20025;-84
2023/12/01 11:20:49;;;;;;;35.58;19.40;;;;;;;;;;6180534;23;20323;-84
2023/12/01 11:23:16;;;;;;;39.20;21.05;;;;;;;;;;6181019;23;20025;-84
2023/12/01 11:25:53;;;;;;;35.65;20.35;;;;;;;;;;6154231;23;20021;-84
2023/12/01 11:28:26;;;;;;;30.40;17.48;;;;;;;;;;6155345;23;20024;-84
2023/12/01 11:31:01;;;;;;;31.77;18.25;;;;;;;;;;6181302;23;20029;-84
2023/12/01 11:33:32;;;;;;;33.50;19.52;;;;;;;;;;6180843;23;20025;-83
2023/12/01 11:36:18;;;;;;;35.38;19.10;;;;;;;;;;6180352;23;20067;-84
2023/12/01 11:39:10;;;;;;;35.28;21.13;;;;;;;;;;6181162;23;20056;-84
2023/12/01 11:41:44;;;;;;;33.13;19.65;;;;;;;;;;6180310;23;20047;-84
2023/12/01 11:44:11;;;;;;;30.80;18.23;;;;;;;;;;6180972;23;20021;-84
2023/12/01 11:46:39;;;;;;;34.60;18.88;;;;;;;;;;6154795;23;20036;-84
2023/12/01 11:49:06;;;;;;;35.85;20.15;;;;;;;;;;6155278;23;20028;-84
2023/12/01 11:51:34;;;;;;;32.58;18.17;;;;;;;;;;6155063;23;20079;-84
2023/12/01 11:54:02;;;;;;;34.05;20.13;;;;;;;;;;6154499;23;20025;-84
2023/12/01 11:56:33;;;;;;;30.48;17.70;;;;;;;;;;6154822;23;20017;-85
2023/12/01 11:59:01;;;;;;;29.42;17.48;;;;;;;;;;6155367;23;20477;-84
2023/12/01 12:01:31;;;;;;;33.58;19.10;;;;;;;;;;6154742;23;20070;-83
2023/12/01 12:03:59;;;;;;;31.85;18.88;;;;;;;;;;6155057;23;20033;-84
2023/12/01 12:06:26;;;;;;;31.40;19.65;;;;;;;;;;6154817;23;20017;-84
2023/12/01 12:08:54;;;;;;;33.08;19.67;;;;;;;;;;6180878;23;20025;-84
2023/12/01 12:11:23;;;;;;;32.38;19.77;;;;;;;;;;6154658;23;20024;-84
2023/12/01 12:13:58;;;;;;;30.38;19.10;;;;;;;;;;6154738;23;20025;-84
2023/12/01 12:16:25;;;;;;;37.03;19.35;;;;;;;;;;6154021;22;20082;-84
2023/12/01 12:18:52;;;;;;;32.60;18.70;;;;;;;;;;6155029;23;20039;-84
2023/12/01 12:21:20;;;;;;;32.95;18.52;;;;;;;;;;6180723;23;20024;-84
2023/12/01 12:23:48;;;;;;;32.45;19.27;;;;;;;;;;6154834;23;20104;-83
2023/12/01 12:26:25;;;;;;;40.83;21.45;;;;;;;;;;6154533;23;20107;-84
2023/12/01 12:28:57;;;;;;;33.35;18.73;;;;;;;;;;6154343;23;20021;-84
2023/12/01 12:31:26;;;;;;;34.53;19.73;;;;;;;;;;6154239;23;20070;-83
2023/12/01 12:33:54;;;;;;;33.83;19.42;;;;;;;;;;6154365;23;20021;-83
2023/12/01 12:36:23;;;;;;;38.28;20.80;;;;;;;;;;6154417;23;20090;-84
2023/12/01 12:38:51;;;;;;;32.80;19.73;;;;;;;;;;6180529;23;20058;-83
2023/12/01 12:41:25;;;;;;;33.45;19.42;;;;;;;;;;6154553;23;20017;-83
2023/12/01 12:43:56;;;;;;;36.42;19.75;;;;;;;;;;6154627;23;20342;-84
2023/12/01 12:46:24;;;;;;;36.80;19.75;;;;;;;;;;6180284;23;20465;-84
2023/12/01 12:49:03;;;;;;;36.45;20.08;;;;;;;;;;6154038;23;20074;-83
2023/12/01 12:51:31;;;;;;;32.00;18.83;;;;;;;;;;6180341;23;20485;-84
2023/12/01 12:53:59;;;;;;;30.08;17.33;;;;;;;;;;6154211;23;20028;-84
2023/12/01 12:56:26;;;;;;;34.33;19.90;;;;;;;;;;6154258;23;20096;-84
2023/12/01 12:58:58;;;;;;;34.88;19.30;;;;;;;;;;6154263;23;20021;-84
2023/12/01 13:01:28;;;;;;;34.75;19.55;;;;;;;;;;6154435;23;20067;-84
2023/12/01 13:03:55;;;;;;;34.25;19.45;;;;;;;;;;6154595;23;20021;-83
2023/12/01 13:06:23;;;;;;;31.88;18.35;;;;;;;;;;6180052;23;20020;-83
2023/12/01 13:08:50;;;;;;;35.65;19.58;;;;;;;;;;6154889;23;20036;-83
2023/12/01 13:11:18;;;;;;;38.83;20.75;;;;;;;;;;6154425;23;20105;-84
2023/12/01 13:13:46;;;;;;;38.72;20.65;;;;;;;;;;6153739;23;20025;-83
2023/12/01 13:16:13;;;;;;;33.25;18.70;;;;;;;;;;6180156;23;20021;-83
2023/12/01 13:18:40;;;;;;;30.90;18.25;;;;;;;;;;6154253;23;20078;-84
2023/12/01 13:21:09;;;;;;;35.90;19.20;;;;;;;;;;6154137;23;20454;-84
2023/12/01 13:23:38;;;;;;;31.50;18.63;;;;;;;;;;6180505;23;20043;-84
2023/12/01 13:26:06;;;;;;;34.20;19.08;;;;;;;;;;6179949;23;20056;-84
2023/12/01 13:28:33;;;;;;;42.60;20.67;;;;;;;;;;6179967;23;20031;-84
2023/12/01 13:31:02;;;;;;;38.60;21.63;;;;;;;;;;6180422;23;20021;-84
2023/12/01 13:33:30;;;;;;;34.80;19.63;;;;;;;;;;6180011;23;20040;-84
2023/12/01 13:35:58;;;;;;;35.63;19.35;;;;;;;;;;6154072;23;20518;-84
2023/12/01 13:38:26;;;;;;;36.55;19.45;;;;;;;;;;6154398;23;20027;-83
2023/12/01 13:40:53;;;;;;;35.67;19.98;;;;;;;;;;6155346;23;20025;-83
2023/12/01 13:43:20;;;;;;;41.78;20.65;;;;;;;;;;6181764;23;20115;-83
2023/12/01 13:45:48;;;;;;;38.53;21.00;;;;;;;;;;6155260;23;20079;-83
2023/12/01 13:48:15;;;;;;;36.22;19.33;;;;;;;;;;6155708;23;20315;-83
2023/12/01 13:50:42;;;;;;;38.38;20.75;;;;;;;;;;6155347;23;20477;-83
2023/12/01 13:53:10;;;;;;;44.72;22.05;;;;;;;;;;6180722;23;20021;-83
2023/12/01 13:55:37;;;;;;;37.55;21.10;;;;;;;;;;6181203;23;20032;-83
2023/12/01 13:58:05;;;;;;;37.25;20.58;;;;;;;;;;6155322;23;20107;-83
2023/12/01 14:00:32;;;;;;;38.70;20.88;;;;;;;;;;6155587;23;20124;-83
2023/12/01 14:03:00;;;;;;;44.38;22.20;;;;;;;;;;6155506;23;20405;-83
2023/12/01 14:05:27;;;;;;;42.05;22.42;;;;;;;;;;6155031;23;20025;-83
2023/12/01 14:07:54;;;;;;;44.38;21.83;;;;;;;;;;6155382;23;20175;-83
2023/12/01 14:10:22;;;;;;;47.75;24.85;;;;;;;;;;6181191;23;20032;-83
2023/12/01 14:12:49;;;;;;;48.38;23.95;;;;;;;;;;6181340;23;20090;-83
2023/12/01 14:15:17;;;;;;;51.50;23.35;;;;;;;;;;6181199;23;20023;-84
2023/12/01 14:17:44;;;;;;;47.67;23.50;;;;;;;;;;6155631;23;20032;-84
2023/12/01 14:20:12;;;;;;;47.35;23.38;;;;;;;;;;6154906;23;20458;-83
2023/12/01 14:22:40;;;;;;;46.08;22.23;;;;;;;;;;6155421;23;20409;-83